»·PEaware :: N157JL KTVL-KBOI

N157JL :: KTVL-KBOI

FLIGHT INFORMATION

Flight Status: Arrived
Operator: Privately registered:
United States
More flights under this callsign
Pilot: Anonymous 16594 (16594)
Aircraft: Unknown
(B60T)
More flights by this aircraft type
Origin: KTVL Lake Tahoe
United States
Destination: KBOI Boise Air Terminal/Gowen
United States
More flights between these airports :: More routes between these airports
Route: +FMG J7 BOI
File this flight plan on PilotEdge
Remarks:
Altitude:
(Current/Filed)
31,000ft
Speed:
(Current/Filed)
309kts
Departed: 24-Jul-18 10:49 AM
Arrived: 24-Jul-18 12:13 PM
Distance/Time
Traveled:
328nm/1:24
Distance/Time
To Go:
Arrived

Flight Plot

Page will automatically refresh every two minutes.

Flight plan parsing failed; only flown route is shown


Map Options




Map Legend


Flown Route
Filed Route
Departure Airport
Arrival Airport
Navaid (VOR, NDB)
Fix

Horizontal Profiles

Position Reports

Time Latitude Longitude Heading Altitude Ground
Speed
24-Jul-18 10:17 38.893057 -119.998430 279 6267ft 0kts
24-Jul-18 10:18 38.893057 -119.998430 279 6267ft 0kts
24-Jul-18 10:19 38.893057 -119.998430 279 6267ft 0kts
24-Jul-18 10:20 38.893057 -119.998430 279 6267ft 0kts
24-Jul-18 10:21 38.893057 -119.998430 279 6267ft 0kts
24-Jul-18 10:22 38.893057 -119.998430 279 6267ft 0kts
24-Jul-18 10:23 38.893057 -119.998430 279 6267ft 0kts
24-Jul-18 10:24 38.893057 -119.998430 279 6267ft 0kts
24-Jul-18 10:25 38.893057 -119.998430 279 6267ft 0kts
24-Jul-18 10:26 38.893057 -119.998430 279 6267ft 0kts
24-Jul-18 10:27 38.893057 -119.998430 279 6267ft 0kts
24-Jul-18 10:28 38.893057 -119.998430 279 6267ft 0kts
24-Jul-18 10:29 38.893057 -119.998430 279 6267ft 0kts
24-Jul-18 10:30 38.893057 -119.998430 279 6267ft 0kts
24-Jul-18 10:31 38.893057 -119.998430 279 6267ft 0kts
24-Jul-18 10:32 38.893057 -119.998430 279 6267ft 0kts
24-Jul-18 10:33 38.893057 -119.998430 279 6267ft 0kts
24-Jul-18 10:34 38.893057 -119.998430 279 6267ft 0kts
24-Jul-18 10:35 38.893057 -119.998430 279 6267ft 0kts
24-Jul-18 10:36 38.893058 -119.998432 279 6267ft 0kts
24-Jul-18 10:37 38.893058 -119.998432 279 6267ft 0kts
24-Jul-18 10:38 38.893058 -119.998435 279 6267ft 0kts
24-Jul-18 10:39 38.893058 -119.998436 279 6267ft 0kts
24-Jul-18 10:40 38.893058 -119.998437 279 6267ft 0kts
24-Jul-18 10:41 38.893058 -119.998438 279 6267ft 0kts
24-Jul-18 10:42 38.893058 -119.998439 279 6267ft 0kts
24-Jul-18 10:43 38.892978 -119.998523 128 6267ft 4kts
24-Jul-18 10:44 38.892194 -119.997514 176 6267ft 7kts
24-Jul-18 10:45 38.891927 -119.997415 139 6267ft 6kts
24-Jul-18 10:46 38.888925 -119.997843 193 6267ft 11kts
24-Jul-18 10:47 38.886302 -119.998622 194 6267ft 8kts
24-Jul-18 10:48 38.883511 -119.999085 124 6267ft 0kts
24-Jul-18 10:49 38.883519 -119.998379 12 6267ft 0kts
24-Jul-18 10:50 38.914615 -119.988992 11 7183ft 184kts
24-Jul-18 10:51 38.965814 -119.976590 7 9291ft 191kts
24-Jul-18 10:52 39.014713 -119.972350 356 11421ft 176kts
24-Jul-18 10:53 39.065252 -119.945357 64 11454ft 235kts
24-Jul-18 10:54 39.109030 -119.882271 28 11415ft 247kts
24-Jul-18 10:55 39.172477 -119.847677 22 11397ft 249kts
24-Jul-18 10:56 39.236363 -119.813844 22 11387ft 249kts
24-Jul-18 10:57 39.296122 -119.782018 22 12812ft 208kts
24-Jul-18 10:58 39.352895 -119.751701 22 13495ft 244kts
24-Jul-18 10:59 39.413282 -119.719395 22 15009ft 221kts
24-Jul-18 11:00 39.468401 -119.689897 21 17487ft 213kts
24-Jul-18 11:01 39.522351 -119.660962 22 19960ft 206kts
24-Jul-18 11:02 39.574477 -119.632238 23 22450ft 211kts
24-Jul-18 11:03 39.631333 -119.600539 23 24972ft 232kts
24-Jul-18 11:04 39.692313 -119.566485 22 27480ft 243kts
24-Jul-18 11:05 39.755452 -119.531190 22 29975ft 249kts
24-Jul-18 11:06 39.824124 -119.492720 23 30961ft 300kts
24-Jul-18 11:07 39.904736 -119.447374 22 30942ft 326kts
24-Jul-18 11:08 39.989354 -119.399709 23 30936ft 335kts
24-Jul-18 11:09 40.075262 -119.351196 22 31018ft 334kts
24-Jul-18 11:10 40.159926 -119.303279 22 31274ft 333kts
24-Jul-18 11:11 40.245456 -119.254729 22 31271ft 337kts
24-Jul-18 11:12 40.331769 -119.205594 22 31269ft 339kts
24-Jul-18 11:13 40.418664 -119.155999 22 31267ft 344kts
24-Jul-18 11:14 40.507133 -119.105350 22 31266ft 347kts
24-Jul-18 11:15 40.595874 -119.054398 22 31267ft 348kts
24-Jul-18 11:16 40.684411 -119.003430 22 31267ft 347kts
24-Jul-18 11:17 40.773170 -118.952162 22 31268ft 347kts
24-Jul-18 11:18 40.861551 -118.900972 21 31269ft 347kts
24-Jul-18 11:19 40.950006 -118.849590 21 31268ft 347kts
24-Jul-18 11:20 41.038570 -118.797994 21 31269ft 347kts
24-Jul-18 11:21 41.126835 -118.746422 21 31275ft 347kts
24-Jul-18 11:22 41.215249 -118.694608 21 31273ft 347kts
24-Jul-18 11:23 41.303809 -118.642550 21 31269ft 347kts
24-Jul-18 11:24 41.392098 -118.590499 21 31273ft 347kts
24-Jul-18 11:25 41.479861 -118.538601 21 31272ft 345kts
24-Jul-18 11:26 41.567647 -118.486542 20 31271ft 345kts
24-Jul-18 11:27 41.655303 -118.434401 20 31266ft 344kts
24-Jul-18 11:28 41.742868 -118.382156 20 31260ft 345kts
24-Jul-18 11:29 41.830463 -118.329738 20 31259ft 344kts
24-Jul-18 11:30 41.918125 -118.277121 20 31258ft 345kts
24-Jul-18 11:31 42.005864 -118.224300 20 31256ft 345kts
24-Jul-18 11:32 42.093467 -118.171396 20 31255ft 345kts
24-Jul-18 11:33 42.180902 -118.118434 20 31253ft 345kts
24-Jul-18 11:34 42.268384 -118.065283 20 31252ft 345kts
24-Jul-18 11:35 42.355854 -118.011972 20 31250ft 345kts
24-Jul-18 11:36 42.443339 -117.958488 20 31249ft 344kts
24-Jul-18 11:37 42.530746 -117.904894 20 31249ft 345kts
24-Jul-18 11:38 42.611004 -117.835461 51 31251ft 351kts
24-Jul-18 11:39 42.671416 -117.731175 51 31248ft 351kts
24-Jul-18 11:40 42.732374 -117.627026 50 31247ft 351kts
24-Jul-18 11:41 42.793354 -117.522706 50 31245ft 352kts
24-Jul-18 11:42 42.854121 -117.418419 50 31240ft 352kts
24-Jul-18 11:43 42.914985 -117.313601 50 31234ft 352kts
24-Jul-18 11:44 42.975722 -117.208628 50 31225ft 352kts
24-Jul-18 11:45 43.036307 -117.103544 50 31188ft 351kts
24-Jul-18 11:46 43.092265 -117.006086 50 28370ft 318kts
24-Jul-18 11:47 43.146172 -116.911948 50 25172ft 302kts
24-Jul-18 11:48 43.196939 -116.823045 50 21770ft 294kts
24-Jul-18 11:49 43.245916 -116.737006 51 18264ft 271kts
24-Jul-18 11:50 43.289334 -116.660513 50 14770ft 240kts
24-Jul-18 11:51 43.327045 -116.593952 50 13155ft 207kts
24-Jul-18 11:52 43.361451 -116.533073 49 12116ft 196kts
24-Jul-18 11:53 43.394164 -116.475084 50 10559ft 191kts
24-Jul-18 11:54 43.402625 -116.406987 102 8786ft 193kts
24-Jul-18 11:55 43.390660 -116.335340 103 7115ft 192kts
24-Jul-18 11:56 43.379194 -116.266704 103 7009ft 178kts
24-Jul-18 11:57 43.370047 -116.211705 103 7026ft 179kts
24-Jul-18 11:58 43.357047 -116.133461 103 7029ft 182kts
24-Jul-18 11:59 43.345810 -116.065968 104 7028ft 182kts
24-Jul-18 12:00 43.326611 -116.002282 115 7031ft 182kts
24-Jul-18 12:01 43.309272 -115.949769 115 7029ft 182kts
24-Jul-18 12:02 43.285094 -115.876299 115 7025ft 177kts
24-Jul-18 12:03 43.281440 -115.824507 44 7033ft 179kts
24-Jul-18 12:04 43.327391 -115.799093 16 7032ft 179kts
24-Jul-18 12:05 43.371048 -115.815598 324 7038ft 170kts
24-Jul-18 12:06 43.415395 -115.860623 317 7068ft 170kts
24-Jul-18 12:07 43.443675 -115.898304 311 7095ft 171kts
24-Jul-18 12:08 43.471490 -115.950422 296 7067ft 168kts
24-Jul-18 12:09 43.490301 -116.007454 296 6620ft 155kts
24-Jul-18 12:10 43.513359 -116.060239 300 5227ft 146kts
24-Jul-18 12:11 43.528570 -116.114013 293 4217ft 126kts
24-Jul-18 12:12 43.541800 -116.154358 298 3565ft 117kts
24-Jul-18 12:13 43.555475 -116.193928 298 3003ft 105kts
24-Jul-18 12:14 43.563305 -116.216276 347 2837ft 14kts
24-Jul-18 12:15 43.564890 -116.217517 294 2837ft 9kts
24-Jul-18 12:16 43.566082 -116.221035 294 2837ft 10kts
24-Jul-18 12:17 43.567311 -116.224623 296 2837ft 10kts
24-Jul-18 12:18 43.568747 -116.225902 1 2837ft 7kts
24-Jul-18 12:19 43.568866 -116.225891 5 2837ft 0kts

Navigation Log

Ident Type
Flight plan parsing failed, navigation log unavailable